sensor_id;sensor_type;location;lat;lon;timestamp;P1;durP1;ratioP1;P2;durP2;ratioP2
4903;SDS011;2467;48.142;11.616;2024-03-23T00:53:22;3.70;;;3.40;;
4903;SDS011;2467;48.142;11.616;2024-03-23T00:53:55;3.60;;;3.30;;
4903;SDS011;2467;48.142;11.616;2024-03-23T00:54:26;12.68;;;11.57;;
4903;SDS011;2467;48.142;11.616;2024-03-23T00:54:58;7.97;;;7.18;;
4903;SDS011;2467;48.142;11.616;2024-03-23T00:55:29;12.55;;;11.20;;
4903;SDS011;2467;48.142;11.616;2024-03-23T00:56:00;17.45;;;15.57;;
4903;SDS011;2467;48.142;11.616;2024-03-23T00:56:31;31.00;;;23.40;;
4903;SDS011;2467;48.142;11.616;2024-03-23T00:57:04;10.52;;;9.43;;
4903;SDS011;2467;48.142;11.616;2024-03-23T00:57:35;5.85;;;5.35;;
4903;SDS011;2467;48.142;11.616;2024-03-23T00:58:06;6.55;;;5.95;;
4903;SDS011;2467;48.142;11.616;2024-03-23T00:58:37;5.18;;;4.35;;
4903;SDS011;2467;48.142;11.616;2024-03-23T00:59:09;3.40;;;3.10;;
4903;SDS011;2467;48.142;11.616;2024-03-23T00:59:40;4.18;;;3.80;;
4903;SDS011;2467;48.142;11.616;2024-03-23T01:00:11;4.18;;;3.78;;
4903;SDS011;2467;48.142;11.616;2024-03-23T01:00:43;4.25;;;3.40;;
4903;SDS011;2467;48.142;11.616;2024-03-23T01:01:16;3.70;;;3.40;;
4903;SDS011;2467;48.142;11.616;2024-03-23T01:01:47;2.70;;;2.50;;
4903;SDS011;2467;48.142;11.616;2024-03-23T01:02:18;4.57;;;3.28;;
4903;SDS011;2467;48.142;11.616;2024-03-23T01:02:49;7.68;;;3.40;;
4903;SDS011;2467;48.142;11.616;2024-03-23T01:03:20;3.55;;;3.25;;
4903;SDS011;2467;48.142;11.616;2024-03-23T01:03:52;3.05;;;2.63;;
4903;SDS011;2467;48.142;11.616;2024-03-23T01:04:23;3.22;;;2.97;;
4903;SDS011;2467;48.142;11.616;2024-03-23T01:04:55;6.32;;;3.33;;
4903;SDS011;2467;48.142;11.616;2024-03-23T01:05:26;3.42;;;2.92;;
4903;SDS011;2467;48.142;11.616;2024-03-23T01:05:58;3.30;;;3.00;;
4903;SDS011;2467;48.142;11.616;2024-03-23T01:06:30;2.90;;;2.55;;
4903;SDS011;2467;48.142;11.616;2024-03-23T01:07:01;3.45;;;3.15;;
4903;SDS011;2467;48.142;11.616;2024-03-23T01:07:33;3.00;;;2.70;;
4903;SDS011;2467;48.142;11.616;2024-03-23T01:08:04;3.20;;;2.95;;
4903;SDS011;2467;48.142;11.616;2024-03-23T01:08:37;2.38;;;2.28;;
4903;SDS011;2467;48.142;11.616;2024-03-23T01:09:10;3.28;;;2.90;;
4903;SDS011;2467;48.142;11.616;2024-03-23T01:09:41;7.45;;;2.92;;
4903;SDS011;2467;48.142;11.616;2024-03-23T01:10:12;3.58;;;2.55;;
4903;SDS011;2467;48.142;11.616;2024-03-23T01:10:53;2.50;;;2.30;;
4903;SDS011;2467;48.142;11.616;2024-03-23T01:11:25;2.50;;;2.30;;
4903;SDS011;2467;48.142;11.616;2024-03-23T01:11:57;7.53;;;2.63;;
4903;SDS011;2467;48.142;11.616;2024-03-23T01:12:28;4.55;;;3.00;;
4903;SDS011;2467;48.142;11.616;2024-03-23T01:12:59;2.72;;;2.53;;
4903;SDS011;2467;48.142;11.616;2024-03-23T01:13:31;3.03;;;2.70;;
4903;SDS011;2467;48.142;11.616;2024-03-23T01:14:02;4.85;;;2.63;;
4903;SDS011;2467;48.142;11.616;2024-03-23T01:14:33;3.33;;;2.92;;
4903;SDS011;2467;48.142;11.616;2024-03-23T01:15:06;3.67;;;2.88;;
4903;SDS011;2467;48.142;11.616;2024-03-23T01:15:38;4.97;;;2.70;;
4903;SDS011;2467;48.142;11.616;2024-03-23T01:16:09;7.78;;;2.63;;
4903;SDS011;2467;48.142;11.616;2024-03-23T01:16:40;2.60;;;2.40;;
4903;SDS011;2467;48.142;11.616;2024-03-23T01:17:11;2.50;;;2.30;;
4903;SDS011;2467;48.142;11.616;2024-03-23T01:17:43;2.63;;;2.40;;
4903;SDS011;2467;48.142;11.616;2024-03-23T01:18:15;3.97;;;3.65;;
4903;SDS011;2467;48.142;11.616;2024-03-23T01:18:46;2.53;;;2.33;;
4903;SDS011;2467;48.142;11.616;2024-03-23T01:19:18;3.08;;;2.40;;
4903;SDS011;2467;48.142;11.616;2024-03-23T01:19:49;3.17;;;2.20;;
4903;SDS011;2467;48.142;11.616;2024-03-23T01:20:21;3.15;;;2.08;;
4903;SDS011;2467;48.142;11.616;2024-03-23T01:20:52;2.95;;;2.60;;
4903;SDS011;2467;48.142;11.616;2024-03-23T01:21:23;2.47;;;2.30;;
4903;SDS011;2467;48.142;11.616;2024-03-23T01:21:54;4.35;;;2.47;;
4903;SDS011;2467;48.142;11.616;2024-03-23T01:22:27;2.78;;;2.58;;
4903;SDS011;2467;48.142;11.616;2024-03-23T01:22:58;2.20;;;1.95;;
4903;SDS011;2467;48.142;11.616;2024-03-23T01:23:29;2.83;;;2.63;;
4903;SDS011;2467;48.142;11.616;2024-03-23T01:24:02;2.00;;;1.75;;
4903;SDS011;2467;48.142;11.616;2024-03-23T01:24:33;3.65;;;2.10;;
4903;SDS011;2467;48.142;11.616;2024-03-23T01:25:04;2.42;;;2.22;;
4903;SDS011;2467;48.142;11.616;2024-03-23T01:25:36;1.95;;;1.85;;
4903;SDS011;2467;48.142;11.616;2024-03-23T01:26:09;3.22;;;2.40;;
4903;SDS011;2467;48.142;11.616;2024-03-23T01:26:40;3.15;;;2.38;;
4903;SDS011;2467;48.142;11.616;2024-03-23T01:27:11;2.63;;;2.42;;
4903;SDS011;2467;48.142;11.616;2024-03-23T01:27:42;3.00;;;1.90;;
4903;SDS011;2467;48.142;11.616;2024-03-23T01:28:13;2.10;;;1.90;;
4903;SDS011;2467;48.142;11.616;2024-03-23T01:28:45;2.95;;;2.40;;
4903;SDS011;2467;48.142;11.616;2024-03-23T01:29:16;2.90;;;2.05;;
4903;SDS011;2467;48.142;11.616;2024-03-23T01:29:47;2.50;;;2.30;;
4903;SDS011;2467;48.142;11.616;2024-03-23T01:30:19;2.60;;;1.95;;
4903;SDS011;2467;48.142;11.616;2024-03-23T01:30:51;2.20;;;2.00;;
4903;SDS011;2467;48.142;11.616;2024-03-23T01:31:22;3.13;;;2.70;;
4903;SDS011;2467;48.142;11.616;2024-03-23T01:31:53;2.78;;;2.33;;
4903;SDS011;2467;48.142;11.616;2024-03-23T01:32:24;2.13;;;1.83;;
4903;SDS011;2467;48.142;11.616;2024-03-23T01:32:56;2.85;;;1.83;;
4903;SDS011;2467;48.142;11.616;2024-03-23T01:33:27;5.63;;;2.60;;
4903;SDS011;2467;48.142;11.616;2024-03-23T01:33:59;2.25;;;2.13;;
4903;SDS011;2467;48.142;11.616;2024-03-23T01:34:30;2.20;;;2.00;;
4903;SDS011;2467;48.142;11.616;2024-03-23T01:35:02;2.03;;;1.83;;
4903;SDS011;2467;48.142;11.616;2024-03-23T01:35:34;7.90;;;3.25;;
4903;SDS011;2467;48.142;11.616;2024-03-23T01:36:05;2.75;;;2.10;;
4903;SDS011;2467;48.142;11.616;2024-03-23T01:36:36;2.40;;;2.00;;
4903;SDS011;2467;48.142;11.616;2024-03-23T01:37:09;2.15;;;1.95;;
4903;SDS011;2467;48.142;11.616;2024-03-23T01:37:40;2.38;;;2.00;;
4903;SDS011;2467;48.142;11.616;2024-03-23T01:38:11;4.93;;;2.20;;
4903;SDS011;2467;48.142;11.616;2024-03-23T01:38:43;2.97;;;2.22;;
4903;SDS011;2467;48.142;11.616;2024-03-23T01:39:15;2.78;;;2.58;;
4903;SDS011;2467;48.142;11.616;2024-03-23T01:39:47;1.88;;;1.77;;
4903;SDS011;2467;48.142;11.616;2024-03-23T01:40:18;2.75;;;2.13;;
4903;SDS011;2467;48.142;11.616;2024-03-23T01:40:49;2.05;;;1.85;;
4903;SDS011;2467;48.142;11.616;2024-03-23T01:41:27;2.38;;;2.17;;
4903;SDS011;2467;48.142;11.616;2024-03-23T01:41:58;2.72;;;2.47;;
4903;SDS011;2467;48.142;11.616;2024-03-23T01:42:29;2.70;;;2.13;;
4903;SDS011;2467;48.142;11.616;2024-03-23T01:43:03;2.50;;;2.30;;
4903;SDS011;2467;48.142;11.616;2024-03-23T01:43:35;2.45;;;2.13;;
4903;SDS011;2467;48.142;11.616;2024-03-23T01:44:06;3.28;;;1.85;;
4903;SDS011;2467;48.142;11.616;2024-03-23T01:44:38;4.53;;;2.25;;
4903;SDS011;2467;48.142;11.616;2024-03-23T01:45:10;2.10;;;1.90;;
4903;SDS011;2467;48.142;11.616;2024-03-23T01:45:41;4.40;;;2.20;;
4903;SDS011;2467;48.142;11.616;2024-03-23T01:46:13;2.65;;;2.08;;
4903;SDS011;2467;48.142;11.616;2024-03-23T01:46:44;3.22;;;2.35;;
4903;SDS011;2467;48.142;11.616;2024-03-23T01:47:15;2.78;;;2.08;;
4903;SDS011;2467;48.142;11.616;2024-03-23T01:47:47;2.60;;;2.40;;
4903;SDS011;2467;48.142;11.616;2024-03-23T01:48:19;3.58;;;2.10;;
4903;SDS011;2467;48.142;11.616;2024-03-23T01:48:51;2.75;;;2.22;;
4903;SDS011;2467;48.142;11.616;2024-03-23T01:49:23;2.25;;;1.88;;
4903;SDS011;2467;48.142;11.616;2024-03-23T01:49:54;3.35;;;2.15;;
4903;SDS011;2467;48.142;11.616;2024-03-23T01:50:26;3.97;;;2.13;;
4903;SDS011;2467;48.142;11.616;2024-03-23T01:50:57;1.67;;;1.58;;
4903;SDS011;2467;48.142;11.616;2024-03-23T01:51:29;2.65;;;2.25;;
4903;SDS011;2467;48.142;11.616;2024-03-23T01:52:01;2.30;;;2.10;;
4903;SDS011;2467;48.142;11.616;2024-03-23T01:52:34;2.28;;;2.08;;
4903;SDS011;2467;48.142;11.616;2024-03-23T01:53:05;2.40;;;2.00;;
4903;SDS011;2467;48.142;11.616;2024-03-23T01:53:37;2.58;;;2.05;;
4903;SDS011;2467;48.142;11.616;2024-03-23T01:54:08;5.35;;;2.10;;
4903;SDS011;2467;48.142;11.616;2024-03-23T01:54:41;2.78;;;2.58;;
4903;SDS011;2467;48.142;11.616;2024-03-23T01:55:14;2.13;;;2.00;;
4903;SDS011;2467;48.142;11.616;2024-03-23T01:55:45;2.70;;;2.50;;
4903;SDS011;2467;48.142;11.616;2024-03-23T01:56:17;2.63;;;1.60;;
4903;SDS011;2467;48.142;11.616;2024-03-23T01:56:49;2.67;;;2.47;;
4903;SDS011;2467;48.142;11.616;2024-03-23T01:57:20;2.95;;;2.17;;
4903;SDS011;2467;48.142;11.616;2024-03-23T01:57:52;1.85;;;1.75;;
4903;SDS011;2467;48.142;11.616;2024-03-23T01:58:23;1.98;;;1.77;;
4903;SDS011;2467;48.142;11.616;2024-03-23T01:58:54;4.82;;;1.95;;
4903;SDS011;2467;48.142;11.616;2024-03-23T01:59:26;3.70;;;2.20;;
4903;SDS011;2467;48.142;11.616;2024-03-23T01:59:58;2.50;;;2.30;;
4903;SDS011;2467;48.142;11.616;2024-03-23T02:00:29;9.18;;;2.80;;
4903;SDS011;2467;48.142;11.616;2024-03-23T02:01:00;2.40;;;2.20;;
4903;SDS011;2467;48.142;11.616;2024-03-23T02:01:32;2.50;;;2.33;;
4903;SDS011;2467;48.142;11.616;2024-03-23T02:02:06;3.85;;;2.35;;
4903;SDS011;2467;48.142;11.616;2024-03-23T02:02:40;2.20;;;2.00;;
4903;SDS011;2467;48.142;11.616;2024-03-23T02:03:23;2.10;;;1.90;;
4903;SDS011;2467;48.142;11.616;2024-03-23T02:03:54;2.80;;;2.60;;
4903;SDS011;2467;48.142;11.616;2024-03-23T02:04:26;2.33;;;2.13;;
4903;SDS011;2467;48.142;11.616;2024-03-23T02:04:57;2.67;;;2.47;;
4903;SDS011;2467;48.142;11.616;2024-03-23T02:05:29;7.03;;;2.42;;
4903;SDS011;2467;48.142;11.616;2024-03-23T02:06:00;2.70;;;2.50;;
4903;SDS011;2467;48.142;11.616;2024-03-23T02:06:32;1.88;;;1.73;;
4903;SDS011;2467;48.142;11.616;2024-03-23T02:07:04;1.83;;;1.73;;
4903;SDS011;2467;48.142;11.616;2024-03-23T02:07:37;2.03;;;1.75;;
4903;SDS011;2467;48.142;11.616;2024-03-23T02:08:09;2.20;;;1.95;;
4903;SDS011;2467;48.142;11.616;2024-03-23T02:08:40;2.85;;;2.05;;
4903;SDS011;2467;48.142;11.616;2024-03-23T02:09:12;2.72;;;2.53;;
4903;SDS011;2467;48.142;11.616;2024-03-23T02:09:45;3.25;;;2.22;;
4903;SDS011;2467;48.142;11.616;2024-03-23T02:10:16;3.60;;;2.47;;
4903;SDS011;2467;48.142;11.616;2024-03-23T02:10:49;1.98;;;1.88;;
4903;SDS011;2467;48.142;11.616;2024-03-23T02:11:20;2.28;;;2.08;;
4903;SDS011;2467;48.142;11.616;2024-03-23T02:11:52;1.92;;;1.80;;
4903;SDS011;2467;48.142;11.616;2024-03-23T02:12:23;3.08;;;2.17;;
4903;SDS011;2467;48.142;11.616;2024-03-23T02:12:54;2.28;;;2.08;;
4903;SDS011;2467;48.142;11.616;2024-03-23T02:13:25;1.85;;;1.75;;
4903;SDS011;2467;48.142;11.616;2024-03-23T02:13:57;2.22;;;2.03;;
4903;SDS011;2467;48.142;11.616;2024-03-23T02:14:28;2.58;;;2.38;;
4903;SDS011;2467;48.142;11.616;2024-03-23T02:15:00;2.35;;;2.20;;
4903;SDS011;2467;48.142;11.616;2024-03-23T02:15:32;2.45;;;2.25;;
4903;SDS011;2467;48.142;11.616;2024-03-23T02:16:04;3.40;;;2.30;;
4903;SDS011;2467;48.142;11.616;2024-03-23T02:16:36;2.13;;;2.03;;
4903;SDS011;2467;48.142;11.616;2024-03-23T02:17:08;2.47;;;1.85;;
4903;SDS011;2467;48.142;11.616;2024-03-23T02:17:39;1.50;;;1.40;;
4903;SDS011;2467;48.142;11.616;2024-03-23T02:18:11;2.92;;;2.30;;
4903;SDS011;2467;48.142;11.616;2024-03-23T02:18:43;4.25;;;2.05;;
4903;SDS011;2467;48.142;11.616;2024-03-23T02:19:14;2.63;;;2.00;;
4903;SDS011;2467;48.142;11.616;2024-03-23T02:19:46;2.15;;;2.05;;
4903;SDS011;2467;48.142;11.616;2024-03-23T02:20:17;2.97;;;2.00;;
4903;SDS011;2467;48.142;11.616;2024-03-23T02:20:48;2.20;;;2.00;;
4903;SDS011;2467;48.142;11.616;2024-03-23T02:21:19;2.17;;;1.73;;
4903;SDS011;2467;48.142;11.616;2024-03-23T02:21:51;2.55;;;2.15;;
4903;SDS011;2467;48.142;11.616;2024-03-23T02:22:23;2.45;;;2.20;;
4903;SDS011;2467;48.142;11.616;2024-03-23T02:22:55;2.30;;;2.10;;
4903;SDS011;2467;48.142;11.616;2024-03-23T02:23:27;4.10;;;2.00;;
4903;SDS011;2467;48.142;11.616;2024-03-23T02:23:58;2.55;;;2.35;;
4903;SDS011;2467;48.142;11.616;2024-03-23T02:24:30;2.80;;;2.60;;
4903;SDS011;2467;48.142;11.616;2024-03-23T02:25:01;2.55;;;2.35;;
4903;SDS011;2467;48.142;11.616;2024-03-23T02:25:33;2.45;;;2.08;;
4903;SDS011;2467;48.142;11.616;2024-03-23T02:26:04;2.95;;;2.00;;
4903;SDS011;2467;48.142;11.616;2024-03-23T02:26:36;2.00;;;1.90;;
4903;SDS011;2467;48.142;11.616;2024-03-23T02:27:07;2.67;;;2.00;;
4903;SDS011;2467;48.142;11.616;2024-03-23T02:27:39;2.92;;;1.73;;
4903;SDS011;2467;48.142;11.616;2024-03-23T02:28:10;2.28;;;2.08;;
4903;SDS011;2467;48.142;11.616;2024-03-23T02:28:41;2.22;;;2.03;;
4903;SDS011;2467;48.142;11.616;2024-03-23T02:29:13;2.33;;;2.13;;
4903;SDS011;2467;48.142;11.616;2024-03-23T02:29:44;3.20;;;2.40;;
4903;SDS011;2467;48.142;11.616;2024-03-23T02:30:16;2.50;;;2.25;;
4903;SDS011;2467;48.142;11.616;2024-03-23T02:30:48;2.53;;;2.33;;
4903;SDS011;2467;48.142;11.616;2024-03-23T02:31:19;2.30;;;2.10;;
4903;SDS011;2467;48.142;11.616;2024-03-23T02:31:50;2.22;;;2.03;;
4903;SDS011;2467;48.142;11.616;2024-03-23T02:32:21;2.67;;;2.47;;
4903;SDS011;2467;48.142;11.616;2024-03-23T02:32:53;2.78;;;2.17;;
4903;SDS011;2467;48.142;11.616;2024-03-23T02:33:24;3.80;;;2.58;;
4903;SDS011;2467;48.142;11.616;2024-03-23T02:33:56;2.50;;;2.33;;
4903;SDS011;2467;48.142;11.616;2024-03-23T02:34:27;4.45;;;2.40;;
4903;SDS011;2467;48.142;11.616;2024-03-23T02:34:58;2.60;;;2.40;;
4903;SDS011;2467;48.142;11.616;2024-03-23T02:35:30;2.70;;;2.10;;
4903;SDS011;2467;48.142;11.616;2024-03-23T02:36:01;2.30;;;2.10;;
4903;SDS011;2467;48.142;11.616;2024-03-23T02:36:33;2.30;;;2.10;;
4903;SDS011;2467;48.142;11.616;2024-03-23T02:37:09;3.15;;;2.80;;
4903;SDS011;2467;48.142;11.616;2024-03-23T02:37:42;2.45;;;2.25;;
4903;SDS011;2467;48.142;11.616;2024-03-23T02:38:15;2.42;;;2.30;;
4903;SDS011;2467;48.142;11.616;2024-03-23T02:38:46;2.00;;;1.80;;
4903;SDS011;2467;48.142;11.616;2024-03-23T02:39:17;2.40;;;2.20;;
4903;SDS011;2467;48.142;11.616;2024-03-23T02:39:48;2.80;;;2.50;;
4903;SDS011;2467;48.142;11.616;2024-03-23T02:40:20;2.70;;;2.50;;
4903;SDS011;2467;48.142;11.616;2024-03-23T02:40:54;2.45;;;2.28;;
4903;SDS011;2467;48.142;11.616;2024-03-23T02:41:25;2.67;;;2.33;;
4903;SDS011;2467;48.142;11.616;2024-03-23T02:41:56;3.53;;;2.15;;
4903;SDS011;2467;48.142;11.616;2024-03-23T02:42:28;2.55;;;2.35;;
4903;SDS011;2467;48.142;11.616;2024-03-23T02:42:59;3.75;;;2.30;;
4903;SDS011;2467;48.142;11.616;2024-03-23T02:43:30;2.15;;;2.00;;
4903;SDS011;2467;48.142;11.616;2024-03-23T02:44:02;2.05;;;1.85;;
4903;SDS011;2467;48.142;11.616;2024-03-23T02:44:33;2.67;;;2.47;;
4903;SDS011;2467;48.142;11.616;2024-03-23T02:45:05;4.05;;;2.33;;
4903;SDS011;2467;48.142;11.616;2024-03-23T02:45:37;5.10;;;2.95;;
4903;SDS011;2467;48.142;11.616;2024-03-23T02:46:08;2.33;;;2.13;;
4903;SDS011;2467;48.142;11.616;2024-03-23T02:46:39;2.65;;;2.45;;
4903;SDS011;2467;48.142;11.616;2024-03-23T02:47:11;2.30;;;2.20;;
4903;SDS011;2467;48.142;11.616;2024-03-23T02:47:42;2.20;;;1.98;;
4903;SDS011;2467;48.142;11.616;2024-03-23T02:48:13;2.50;;;2.30;;
4903;SDS011;2467;48.142;11.616;2024-03-23T02:48:48;3.92;;;2.35;;
4903;SDS011;2467;48.142;11.616;2024-03-23T02:49:19;2.42;;;2.25;;
4903;SDS011;2467;48.142;11.616;2024-03-23T02:49:51;4.07;;;2.75;;
4903;SDS011;2467;48.142;11.616;2024-03-23T02:50:22;3.92;;;2.45;;
4903;SDS011;2467;48.142;11.616;2024-03-23T02:50:54;2.95;;;2.15;;
4903;SDS011;2467;48.142;11.616;2024-03-23T02:51:25;2.50;;;2.30;;
4903;SDS011;2467;48.142;11.616;2024-03-23T02:51:56;3.75;;;2.63;;
4903;SDS011;2467;48.142;11.616;2024-03-23T02:52:28;2.35;;;2.15;;
4903;SDS011;2467;48.142;11.616;2024-03-23T02:53:00;2.30;;;2.10;;
4903;SDS011;2467;48.142;11.616;2024-03-23T02:53:32;2.85;;;2.20;;
4903;SDS011;2467;48.142;11.616;2024-03-23T02:54:03;2.88;;;2.67;;
4903;SDS011;2467;48.142;11.616;2024-03-23T02:54:35;2.85;;;2.10;;
4903;SDS011;2467;48.142;11.616;2024-03-23T02:55:06;2.15;;;1.95;;
4903;SDS011;2467;48.142;11.616;2024-03-23T02:55:38;2.90;;;2.58;;
4903;SDS011;2467;48.142;11.616;2024-03-23T02:56:10;3.05;;;2.00;;
4903;SDS011;2467;48.142;11.616;2024-03-23T02:56:46;4.72;;;2.40;;
4903;SDS011;2467;48.142;11.616;2024-03-23T02:57:17;2.70;;;2.00;;
4903;SDS011;2467;48.142;11.616;2024-03-23T02:57:48;2.10;;;1.88;;
4903;SDS011;2467;48.142;11.616;2024-03-23T02:58:20;2.30;;;2.10;;
4903;SDS011;2467;48.142;11.616;2024-03-23T02:58:51;3.22;;;3.03;;
4903;SDS011;2467;48.142;11.616;2024-03-23T02:59:22;2.67;;;2.20;;
4903;SDS011;2467;48.142;11.616;2024-03-23T02:59:53;6.88;;;2.20;;
4903;SDS011;2467;48.142;11.616;2024-03-23T03:00:25;2.45;;;2.17;;
4903;SDS011;2467;48.142;11.616;2024-03-23T03:00:57;4.55;;;2.25;;
4903;SDS011;2467;48.142;11.616;2024-03-23T03:01:28;3.42;;;2.60;;
4903;SDS011;2467;48.142;11.616;2024-03-23T03:01:59;3.75;;;2.80;;
4903;SDS011;2467;48.142;11.616;2024-03-23T03:02:31;2.03;;;1.85;;
4903;SDS011;2467;48.142;11.616;2024-03-23T03:03:03;2.22;;;2.13;;
4903;SDS011;2467;48.142;11.616;2024-03-23T03:03:35;2.80;;;2.60;;
4903;SDS011;2467;48.142;11.616;2024-03-23T03:04:06;2.10;;;1.98;;
4903;SDS011;2467;48.142;11.616;2024-03-23T03:04:38;3.17;;;2.60;;
4903;SDS011;2467;48.142;11.616;2024-03-23T03:05:09;2.35;;;2.15;;
4903;SDS011;2467;48.142;11.616;2024-03-23T03:05:41;3.08;;;2.40;;
4903;SDS011;2467;48.142;11.616;2024-03-23T03:06:22;2.60;;;2.40;;
4903;SDS011;2467;48.142;11.616;2024-03-23T03:06:53;2.80;;;2.60;;
4903;SDS011;2467;48.142;11.616;2024-03-23T03:07:26;3.47;;;2.47;;
4903;SDS011;2467;48.142;11.616;2024-03-23T03:07:57;2.50;;;2.25;;
4903;SDS011;2467;48.142;11.616;2024-03-23T03:08:28;2.20;;;2.10;;
4903;SDS011;2467;48.142;11.616;2024-03-23T03:09:01;3.03;;;2.78;;
4903;SDS011;2467;48.142;11.616;2024-03-23T03:09:32;2.60;;;2.08;;
4903;SDS011;2467;48.142;11.616;2024-03-23T03:10:05;2.40;;;2.20;;
4903;SDS011;2467;48.142;11.616;2024-03-23T03:10:39;2.40;;;2.20;;
4903;SDS011;2467;48.142;11.616;2024-03-23T03:11:11;4.90;;;2.63;;
4903;SDS011;2467;48.142;11.616;2024-03-23T03:11:42;3.42;;;2.50;;
4903;SDS011;2467;48.142;11.616;2024-03-23T03:12:13;2.63;;;2.35;;
4903;SDS011;2467;48.142;11.616;2024-03-23T03:12:44;5.55;;;2.30;;
4903;SDS011;2467;48.142;11.616;2024-03-23T03:13:16;3.45;;;2.42;;
4903;SDS011;2467;48.142;11.616;2024-03-23T03:13:47;2.60;;;2.40;;
4903;SDS011;2467;48.142;11.616;2024-03-23T03:14:18;2.50;;;2.15;;
4903;SDS011;2467;48.142;11.616;2024-03-23T03:14:50;3.38;;;2.25;;
4903;SDS011;2467;48.142;11.616;2024-03-23T03:15:22;2.72;;;2.20;;
4903;SDS011;2467;48.142;11.616;2024-03-23T03:15:53;2.33;;;2.13;;
4903;SDS011;2467;48.142;11.616;2024-03-23T03:16:24;2.22;;;2.03;;
4903;SDS011;2467;48.142;11.616;2024-03-23T03:16:55;3.15;;;1.80;;
4903;SDS011;2467;48.142;11.616;2024-03-23T03:17:27;2.35;;;2.15;;
4903;SDS011;2467;48.142;11.616;2024-03-23T03:17:59;2.78;;;2.58;;
4903;SDS011;2467;48.142;11.616;2024-03-23T03:18:30;2.63;;;2.42;;
4903;SDS011;2467;48.142;11.616;2024-03-23T03:19:01;2.58;;;2.22;;
4903;SDS011;2467;48.142;11.616;2024-03-23T03:19:33;4.45;;;2.30;;
4903;SDS011;2467;48.142;11.616;2024-03-23T03:20:04;2.67;;;2.47;;
4903;SDS011;2467;48.142;11.616;2024-03-23T03:20:37;2.30;;;2.10;;
4903;SDS011;2467;48.142;11.616;2024-03-23T03:21:09;2.70;;;2.50;;
4903;SDS011;2467;48.142;11.616;2024-03-23T03:21:42;2.92;;;2.25;;
4903;SDS011;2467;48.142;11.616;2024-03-23T03:22:13;3.03;;;2.72;;
4903;SDS011;2467;48.142;11.616;2024-03-23T03:22:45;2.50;;;2.30;;
4903;SDS011;2467;48.142;11.616;2024-03-23T03:23:16;1.90;;;1.80;;
4903;SDS011;2467;48.142;11.616;2024-03-23T03:23:48;2.38;;;2.17;;
4903;SDS011;2467;48.142;11.616;2024-03-23T03:24:22;3.00;;;2.75;;
4903;SDS011;2467;48.142;11.616;2024-03-23T03:24:53;5.35;;;2.60;;
4903;SDS011;2467;48.142;11.616;2024-03-23T03:25:25;3.95;;;2.67;;
4903;SDS011;2467;48.142;11.616;2024-03-23T03:25:56;2.50;;;2.30;;
4903;SDS011;2467;48.142;11.616;2024-03-23T03:26:28;2.45;;;2.20;;
4903;SDS011;2467;48.142;11.616;2024-03-23T03:26:59;4.22;;;2.20;;
4903;SDS011;2467;48.142;11.616;2024-03-23T03:27:30;2.47;;;2.30;;
4903;SDS011;2467;48.142;11.616;2024-03-23T03:28:02;2.65;;;2.45;;
4903;SDS011;2467;48.142;11.616;2024-03-23T03:28:34;4.95;;;3.67;;
4903;SDS011;2467;48.142;11.616;2024-03-23T03:29:06;6.38;;;2.05;;
4903;SDS011;2467;48.142;11.616;2024-03-23T03:29:37;4.28;;;2.03;;
4903;SDS011;2467;48.142;11.616;2024-03-23T03:30:09;2.80;;;2.60;;
4903;SDS011;2467;48.142;11.616;2024-03-23T03:30:41;2.92;;;2.30;;
4903;SDS011;2467;48.142;11.616;2024-03-23T03:31:12;3.88;;;2.35;;
4903;SDS011;2467;48.142;11.616;2024-03-23T03:31:43;2.42;;;2.22;;
4903;SDS011;2467;48.142;11.616;2024-03-23T03:32:15;4.50;;;2.88;;
4903;SDS011;2467;48.142;11.616;2024-03-23T03:32:47;2.60;;;2.40;;
4903;SDS011;2467;48.142;11.616;2024-03-23T03:33:18;3.80;;;2.47;;
4903;SDS011;2467;48.142;11.616;2024-03-23T03:33:49;3.85;;;2.90;;
4903;SDS011;2467;48.142;11.616;2024-03-23T03:34:21;2.42;;;2.25;;
4903;SDS011;2467;48.142;11.616;2024-03-23T03:34:52;3.53;;;2.50;;
4903;SDS011;2467;48.142;11.616;2024-03-23T03:35:23;2.60;;;2.40;;
4903;SDS011;2467;48.142;11.616;2024-03-23T03:35:54;2.78;;;2.22;;
4903;SDS011;2467;48.142;11.616;2024-03-23T03:36:27;3.35;;;2.83;;
4903;SDS011;2467;48.142;11.616;2024-03-23T03:36:58;2.30;;;2.20;;
4903;SDS011;2467;48.142;11.616;2024-03-23T03:37:30;3.10;;;2.90;;
4903;SDS011;2467;48.142;11.616;2024-03-23T03:38:01;2.75;;;2.55;;
4903;SDS011;2467;48.142;11.616;2024-03-23T03:38:32;2.83;;;2.63;;
4903;SDS011;2467;48.142;11.616;2024-03-23T03:39:05;2.20;;;2.10;;
4903;SDS011;2467;48.142;11.616;2024-03-23T03:39:38;3.20;;;2.90;;
4903;SDS011;2467;48.142;11.616;2024-03-23T03:40:10;3.45;;;2.28;;
4903;SDS011;2467;48.142;11.616;2024-03-23T03:40:45;2.70;;;2.50;;
4903;SDS011;2467;48.142;11.616;2024-03-23T03:41:17;2.60;;;2.40;;
4903;SDS011;2467;48.142;11.616;2024-03-23T03:41:48;2.72;;;2.53;;
4903;SDS011;2467;48.142;11.616;2024-03-23T03:42:20;4.75;;;2.40;;
4903;SDS011;2467;48.142;11.616;2024-03-23T03:42:51;2.63;;;2.42;;
4903;SDS011;2467;48.142;11.616;2024-03-23T03:43:22;3.30;;;3.00;;
4903;SDS011;2467;48.142;11.616;2024-03-23T03:43:54;3.38;;;3.08;;
4903;SDS011;2467;48.142;11.616;2024-03-23T03:44:26;3.25;;;2.72;;
4903;SDS011;2467;48.142;11.616;2024-03-23T03:44:57;3.45;;;2.95;;
4903;SDS011;2467;48.142;11.616;2024-03-23T03:45:28;2.65;;;2.45;;
4903;SDS011;2467;48.142;11.616;2024-03-23T03:46:00;2.70;;;2.50;;
4903;SDS011;2467;48.142;11.616;2024-03-23T03:46:31;2.88;;;2.67;;
4903;SDS011;2467;48.142;11.616;2024-03-23T03:47:04;3.50;;;2.45;;
4903;SDS011;2467;48.142;11.616;2024-03-23T03:47:35;2.47;;;2.28;;
4903;SDS011;2467;48.142;11.616;2024-03-23T03:48:07;2.30;;;2.10;;
4903;SDS011;2467;48.142;11.616;2024-03-23T03:48:38;2.72;;;2.63;;
4903;SDS011;2467;48.142;11.616;2024-03-23T03:49:09;2.92;;;2.55;;
4903;SDS011;2467;48.142;11.616;2024-03-23T03:49:41;3.13;;;2.83;;
4903;SDS011;2467;48.142;11.616;2024-03-23T03:50:13;2.60;;;2.40;;
4903;SDS011;2467;48.142;11.616;2024-03-23T03:50:44;3.35;;;2.90;;
4903;SDS011;2467;48.142;11.616;2024-03-23T03:51:15;3.10;;;2.90;;
4903;SDS011;2467;48.142;11.616;2024-03-23T03:51:47;2.75;;;2.55;;
4903;SDS011;2467;48.142;11.616;2024-03-23T03:52:18;2.90;;;2.70;;
4903;SDS011;2467;48.142;11.616;2024-03-23T03:52:49;3.10;;;2.40;;
4903;SDS011;2467;48.142;11.616;2024-03-23T03:53:20;2.45;;;2.25;;
4903;SDS011;2467;48.142;11.616;2024-03-23T03:53:53;4.05;;;2.83;;
4903;SDS011;2467;48.142;11.616;2024-03-23T03:54:24;2.40;;;2.20;;
4903;SDS011;2467;48.142;11.616;2024-03-23T03:55:00;2.67;;;2.47;;
4903;SDS011;2467;48.142;11.616;2024-03-23T03:55:32;2.50;;;2.30;;
4903;SDS011;2467;48.142;11.616;2024-03-23T03:56:04;2.40;;;2.20;;
4903;SDS011;2467;48.142;11.616;2024-03-23T03:56:35;2.85;;;2.42;;
4903;SDS011;2467;48.142;11.616;2024-03-23T03:57:06;2.60;;;2.40;;
4903;SDS011;2467;48.142;11.616;2024-03-23T03:57:38;3.25;;;2.40;;
4903;SDS011;2467;48.142;11.616;2024-03-23T03:58:10;3.90;;;3.60;;
4903;SDS011;2467;48.142;11.616;2024-03-23T03:58:41;2.85;;;2.55;;
4903;SDS011;2467;48.142;11.616;2024-03-23T03:59:12;3.95;;;3.00;;
4903;SDS011;2467;48.142;11.616;2024-03-23T03:59:44;2.88;;;2.30;;
4903;SDS011;2467;48.142;11.616;2024-03-23T04:00:15;3.40;;;2.40;;
4903;SDS011;2467;48.142;11.616;2024-03-23T04:00:47;7.78;;;3.03;;
4903;SDS011;2467;48.142;11.616;2024-03-23T04:01:18;2.50;;;2.40;;
4903;SDS011;2467;48.142;11.616;2024-03-23T04:01:49;2.70;;;2.50;;
4903;SDS011;2467;48.142;11.616;2024-03-23T04:02:20;3.15;;;2.85;;
4903;SDS011;2467;48.142;11.616;2024-03-23T04:02:52;3.30;;;3.00;;
4903;SDS011;2467;48.142;11.616;2024-03-23T04:03:24;4.03;;;3.10;;
4903;SDS011;2467;48.142;11.616;2024-03-23T04:03:55;3.85;;;2.75;;
4903;SDS011;2467;48.142;11.616;2024-03-23T04:04:26;3.08;;;2.88;;
4903;SDS011;2467;48.142;11.616;2024-03-23T04:04:57;2.63;;;2.50;;
4903;SDS011;2467;48.142;11.616;2024-03-23T04:05:28;2.33;;;2.13;;
4903;SDS011;2467;48.142;11.616;2024-03-23T04:06:00;4.60;;;3.28;;
4903;SDS011;2467;48.142;11.616;2024-03-23T04:06:32;2.80;;;1.98;;
4903;SDS011;2467;48.142;11.616;2024-03-23T04:07:03;2.80;;;2.42;;